createdAt,value
2023-05-15T00:01:54.665Z,6.80
2023-05-15T00:04:23.741Z,7.40
2023-05-15T00:06:53.273Z,7.43
2023-05-15T00:09:22.316Z,7.32
2023-05-15T00:11:52.405Z,7.30
2023-05-15T00:14:21.414Z,9.05
2023-05-15T00:16:59.350Z,10.88
2023-05-15T00:19:28.699Z,7.65
2023-05-15T00:21:57.792Z,7.82
2023-05-15T00:24:26.949Z,8.25
2023-05-15T00:26:56.055Z,7.65
2023-05-15T00:29:25.366Z,8.10
2023-05-15T00:31:54.666Z,8.15
2023-05-15T00:34:24.212Z,8.30
2023-05-15T00:36:53.369Z,8.30
2023-05-15T00:39:22.541Z,8.35
2023-05-15T00:41:53.167Z,7.95
2023-05-15T00:44:23.224Z,7.70
2023-05-15T00:46:53.436Z,7.90
2023-05-15T00:49:25.245Z,8.25
2023-05-15T00:51:54.846Z,8.07
2023-05-15T00:54:23.942Z,8.07
2023-05-15T00:56:53.036Z,8.18
2023-05-15T00:59:24.264Z,8.40
2023-05-15T01:01:53.416Z,9.15
2023-05-15T01:04:24.066Z,9.57
2023-05-15T01:06:56.489Z,9.13
2023-05-15T01:09:31.668Z,11.38
2023-05-15T01:12:02.229Z,8.65
2023-05-15T01:14:31.306Z,8.77
2023-05-15T01:17:00.424Z,8.02
2023-05-15T01:19:29.942Z,8.35
2023-05-15T01:22:29.584Z,8.00
2023-05-15T01:25:15.747Z,9.52
2023-05-15T01:27:56.200Z,9.50
2023-05-15T01:30:40.208Z,8.05
2023-05-15T01:33:16.937Z,8.13
2023-05-15T01:36:13.652Z,9.45
2023-05-15T01:38:57.108Z,8.38
2023-05-15T01:41:47.282Z,9.02
2023-05-15T01:44:19.430Z,10.25
2023-05-15T01:46:53.792Z,9.13
2023-05-15T01:49:26.249Z,9.00
2023-05-15T01:52:03.293Z,10.60
2023-05-15T01:54:34.414Z,8.63
2023-05-15T01:57:04.457Z,8.73
2023-05-15T01:59:34.746Z,9.18
2023-05-15T02:02:06.349Z,10.77
2023-05-15T02:04:36.495Z,8.57
2023-05-15T02:07:07.319Z,10.27
2023-05-15T02:09:37.279Z,10.93
2023-05-15T02:12:07.588Z,9.68
2023-05-15T02:14:38.443Z,9.68
2023-05-15T02:17:07.852Z,9.13
2023-05-15T02:19:37.028Z,9.45
2023-05-15T02:22:06.303Z,9.30
2023-05-15T02:24:35.375Z,9.77
2023-05-15T02:27:08.516Z,9.35
2023-05-15T02:30:02.250Z,9.65
2023-05-15T02:32:48.471Z,10.63
2023-05-15T02:35:35.871Z,11.43
2023-05-15T02:38:13.521Z,10.35
2023-05-15T02:40:43.415Z,10.98
2023-05-15T02:43:13.143Z,10.85
2023-05-15T02:45:42.530Z,9.55
2023-05-15T02:48:12.115Z,10.20
2023-05-15T02:50:41.670Z,9.20
2023-05-15T02:53:11.360Z,9.40
2023-05-15T02:55:40.513Z,8.73
2023-05-15T02:58:09.848Z,9.38
2023-05-15T03:00:38.913Z,9.98
2023-05-15T03:03:07.951Z,9.55
2023-05-15T03:05:37.046Z,9.65
2023-05-15T03:08:07.201Z,9.30
2023-05-15T03:10:36.475Z,10.55
2023-05-15T03:13:05.831Z,10.07
2023-05-15T03:15:34.915Z,9.43
2023-05-15T03:18:04.075Z,11.00
2023-05-15T03:20:33.218Z,10.57
2023-05-15T03:23:02.223Z,11.50
2023-05-15T03:25:31.454Z,11.25
2023-05-15T03:28:00.757Z,9.57
2023-05-15T03:30:30.052Z,9.00
2023-05-15T03:32:59.238Z,9.30
2023-05-15T03:35:31.585Z,9.68
2023-05-15T03:38:00.754Z,9.98
2023-05-15T03:40:29.920Z,9.32
2023-05-15T03:42:59.698Z,10.05
2023-05-15T03:45:30.316Z,9.32
2023-05-15T03:47:59.440Z,9.80
2023-05-15T03:50:29.837Z,9.75
2023-05-15T03:52:58.939Z,10.55
2023-05-15T03:55:28.186Z,10.40
2023-05-15T03:58:00.293Z,11.35
2023-05-15T04:00:29.372Z,9.23
2023-05-15T04:02:59.033Z,9.15
2023-05-15T04:05:28.562Z,10.02
2023-05-15T04:07:57.939Z,10.00
2023-05-15T04:10:27.107Z,10.60
2023-05-15T04:12:56.517Z,9.18
2023-05-15T04:15:28.220Z,9.77
2023-05-15T04:17:57.548Z,10.18
2023-05-15T04:20:27.347Z,9.07
2023-05-15T04:22:56.687Z,8.98
2023-05-15T04:25:26.674Z,9.95
2023-05-15T04:27:56.201Z,9.32
2023-05-15T04:30:31.988Z,9.75
2023-05-15T04:33:04.519Z,11.23
2023-05-15T04:35:34.659Z,9.93
2023-05-15T04:38:03.786Z,9.73
2023-05-15T04:40:33.079Z,10.55
2023-05-15T04:43:02.588Z,9.90
2023-05-15T04:45:31.669Z,10.30
2023-05-15T04:48:00.850Z,10.23
2023-05-15T04:50:30.780Z,11.45
2023-05-15T04:52:59.834Z,12.35
2023-05-15T04:55:28.849Z,11.82
2023-05-15T04:57:57.930Z,11.68
2023-05-15T05:00:32.071Z,11.43
2023-05-15T05:03:01.447Z,10.45
2023-05-15T05:05:32.264Z,10.88
2023-05-15T05:08:01.425Z,11.70
2023-05-15T05:10:30.629Z,12.20
2023-05-15T05:12:59.675Z,12.10
2023-05-15T05:15:28.752Z,12.20
2023-05-15T05:17:57.866Z,10.70
2023-05-15T05:20:27.190Z,11.43
2023-05-15T05:22:56.939Z,11.75
2023-05-15T05:25:27.182Z,11.80
2023-05-15T05:27:56.292Z,11.52
2023-05-15T05:30:25.385Z,11.23
2023-05-15T05:32:54.662Z,11.70
2023-05-15T05:35:24.129Z,11.38
2023-05-15T05:37:53.440Z,11.50
2023-05-15T05:40:22.799Z,11.05
2023-05-15T05:42:52.680Z,12.20
2023-05-15T05:45:25.759Z,12.32
2023-05-15T05:47:55.046Z,11.73
2023-05-15T05:50:32.024Z,12.27
2023-05-15T05:53:01.661Z,11.77
2023-05-15T05:55:30.707Z,12.30
2023-05-15T06:00:30.421Z,12.13
2023-05-15T06:03:01.081Z,11.75
2023-05-15T06:05:30.955Z,12.27
2023-05-15T06:08:02.236Z,11.88
2023-05-15T06:10:33.185Z,11.82
2023-05-15T06:13:05.777Z,11.95
2023-05-15T06:15:35.169Z,12.60
2023-05-15T06:18:04.644Z,11.98
2023-05-15T06:20:33.918Z,11.48
2023-05-15T06:23:03.514Z,11.70
2023-05-15T06:25:33.208Z,11.45
2023-05-15T06:28:02.415Z,11.25
2023-05-15T06:30:31.544Z,11.90
2023-05-15T06:33:00.817Z,11.70
2023-05-15T06:35:31.410Z,11.88
2023-05-15T06:38:00.445Z,13.63
2023-05-15T06:40:29.752Z,14.85
2023-05-15T06:42:59.976Z,11.85
2023-05-15T06:45:29.440Z,12.30
2023-05-15T06:48:01.455Z,11.77
2023-05-15T06:50:33.863Z,12.47
2023-05-15T06:53:03.174Z,12.32
2023-05-15T06:55:34.572Z,12.43
2023-05-15T06:58:03.929Z,12.82
2023-05-15T07:00:32.955Z,12.32
2023-05-15T07:03:01.976Z,11.98
2023-05-15T07:05:31.110Z,12.45
2023-05-15T07:08:00.172Z,11.60
2023-05-15T07:10:29.679Z,12.18
2023-05-15T07:13:04.033Z,12.57
2023-05-15T07:15:33.322Z,11.30
2023-05-15T07:18:02.558Z,12.07
2023-05-15T07:20:33.501Z,10.65
2023-05-15T07:23:05.133Z,13.17
2023-05-15T07:25:34.478Z,11.63
2023-05-15T07:28:03.538Z,12.55
2023-05-15T07:30:33.321Z,12.25
2023-05-15T07:33:03.018Z,13.07
2023-05-15T07:35:35.687Z,12.25
2023-05-15T07:38:10.154Z,12.63
2023-05-15T07:40:39.996Z,13.80
2023-05-15T07:43:09.471Z,13.48
2023-05-15T07:45:40.680Z,12.70
2023-05-15T07:48:20.657Z,13.43
2023-05-15T07:50:52.185Z,12.38
2023-05-15T07:53:22.940Z,13.07
2023-05-15T07:56:01.982Z,12.98
2023-05-15T07:58:31.121Z,13.68
2023-05-15T08:01:02.596Z,12.02
2023-05-15T08:03:32.958Z,12.75
2023-05-15T08:06:03.630Z,12.20
2023-05-15T08:08:33.486Z,13.70
2023-05-15T08:11:02.777Z,12.93
2023-05-15T08:13:32.128Z,12.05
2023-05-15T08:16:08.759Z,12.60
2023-05-15T08:18:37.977Z,12.75
2023-05-15T08:21:07.100Z,12.00
2023-05-15T08:23:40.260Z,12.48
2023-05-15T08:26:11.270Z,11.68
2023-05-15T08:28:42.315Z,12.55
2023-05-15T08:31:12.067Z,13.18
2023-05-15T08:33:41.197Z,12.68
2023-05-15T08:36:13.163Z,12.60
2023-05-15T08:38:42.247Z,13.20
2023-05-15T08:41:38.789Z,12.25
2023-05-15T08:44:12.395Z,12.60
2023-05-15T08:46:42.321Z,12.80
2023-05-15T08:49:47.455Z,12.00
2023-05-15T08:52:33.702Z,12.30
2023-05-15T08:55:03.390Z,12.75
2023-05-15T08:57:36.190Z,11.70
2023-05-15T09:00:17.803Z,13.68
2023-05-15T09:02:46.870Z,13.00
2023-05-15T09:05:15.966Z,12.60
2023-05-15T09:07:46.236Z,12.80
2023-05-15T09:10:16.402Z,13.40
2023-05-15T09:12:46.756Z,13.48
2023-05-15T09:15:24.586Z,12.85
2023-05-15T09:17:54.647Z,12.55
2023-05-15T09:20:31.966Z,11.45
2023-05-15T09:23:03.608Z,11.82
2023-05-15T09:26:07.754Z,12.60
2023-05-15T09:31:06.975Z,11.82
2023-05-15T09:33:39.150Z,12.02
2023-05-15T09:36:10.285Z,13.15
2023-05-15T09:38:43.974Z,12.80
2023-05-15T09:41:13.062Z,12.65
2023-05-15T09:43:42.838Z,11.98
2023-05-15T09:46:14.154Z,12.50
2023-05-15T09:48:43.312Z,13.38
2023-05-15T09:51:20.638Z,12.23
2023-05-15T09:53:54.531Z,12.40
2023-05-15T09:56:23.702Z,12.55
2023-05-15T09:59:00.580Z,12.45
2023-05-15T10:01:29.800Z,11.57
2023-05-15T10:04:08.828Z,12.25
2023-05-15T10:06:40.652Z,13.02
2023-05-15T10:09:12.283Z,13.35
2023-05-15T10:11:44.641Z,13.90
2023-05-15T10:14:15.742Z,13.07
2023-05-15T10:16:45.335Z,12.07
2023-05-15T10:19:15.822Z,12.55
2023-05-15T10:21:45.754Z,13.00
2023-05-15T10:24:15.876Z,14.52
2023-05-15T10:26:45.834Z,14.38
2023-05-15T10:29:18.297Z,13.77
2023-05-15T10:31:50.277Z,13.93
2023-05-15T10:34:20.302Z,12.48
2023-05-15T10:36:52.299Z,15.15
2023-05-15T10:39:22.226Z,13.63
2023-05-15T10:41:52.737Z,13.60
2023-05-15T10:44:23.384Z,14.38
2023-05-15T10:46:52.937Z,13.77
2023-05-15T10:49:22.036Z,14.40
2023-05-15T10:51:51.639Z,13.93
2023-05-15T10:54:20.831Z,14.40
2023-05-15T10:56:52.127Z,14.02
2023-05-15T10:59:21.579Z,13.20
2023-05-15T11:01:50.598Z,13.77
2023-05-15T11:04:20.833Z,13.40
2023-05-15T11:06:52.025Z,14.43
2023-05-15T11:09:24.762Z,13.80
2023-05-15T11:12:02.399Z,15.00
2023-05-15T11:14:42.645Z,14.98
2023-05-15T11:17:18.808Z,16.67
2023-05-15T11:19:53.841Z,14.93
2023-05-15T11:22:42.565Z,15.93
2023-05-15T11:25:17.181Z,15.77
2023-05-15T11:27:47.540Z,16.65
2023-05-15T11:30:26.151Z,17.60
2023-05-15T11:33:03.027Z,19.70
2023-05-15T11:35:43.344Z,18.77
2023-05-15T11:38:12.369Z,21.85
2023-05-15T11:40:57.021Z,20.40
2023-05-15T11:43:33.742Z,22.30
2023-05-15T11:46:05.533Z,23.00
2023-05-15T11:48:36.863Z,23.30
2023-05-15T11:51:07.336Z,24.02
2023-05-15T11:53:36.977Z,23.02
2023-05-15T11:56:06.182Z,22.42
2023-05-15T11:58:35.409Z,24.13
2023-05-15T12:01:04.416Z,22.45
2023-05-15T12:03:39.362Z,21.35
2023-05-15T12:06:08.900Z,23.95
2023-05-15T12:08:39.775Z,23.73
2023-05-15T12:11:09.274Z,23.23
2023-05-15T12:13:38.372Z,23.13
2023-05-15T12:16:07.817Z,23.10
2023-05-15T12:18:36.976Z,22.50
2023-05-15T12:21:07.227Z,22.25
2023-05-15T12:23:36.247Z,21.85
2023-05-15T12:26:07.988Z,21.52
2023-05-15T12:28:37.548Z,21.58
2023-05-15T12:31:06.971Z,21.73
2023-05-15T12:33:36.182Z,23.50
2023-05-15T12:36:05.421Z,24.52
2023-05-15T12:38:36.156Z,27.13
2023-05-15T12:41:05.400Z,24.13
2023-05-15T12:43:35.180Z,24.05
2023-05-15T12:46:04.305Z,25.55
2023-05-15T12:48:34.156Z,26.15
2023-05-15T12:51:10.105Z,26.35
2023-05-15T12:53:40.653Z,30.70
2023-05-15T12:56:18.324Z,31.85
2023-05-15T12:58:49.286Z,31.58
2023-05-15T13:01:18.974Z,31.80
2023-05-15T13:03:49.376Z,31.40
2023-05-15T13:06:19.176Z,31.00
2023-05-15T13:08:49.128Z,32.08
2023-05-15T13:11:19.477Z,29.70
2023-05-15T13:13:52.120Z,29.55
2023-05-15T13:16:30.559Z,33.78
2023-05-15T13:19:00.503Z,30.63
2023-05-15T13:21:30.993Z,31.88
2023-05-15T13:24:00.047Z,29.92
2023-05-15T13:26:29.257Z,31.48
2023-05-15T13:28:58.244Z,31.05
2023-05-15T13:31:27.835Z,32.15
2023-05-15T13:33:57.020Z,34.15
2023-05-15T13:36:26.046Z,33.00
2023-05-15T13:38:55.054Z,32.70
2023-05-15T13:41:24.246Z,31.75
2023-05-15T13:43:53.197Z,30.10
2023-05-15T13:46:22.254Z,28.13
2023-05-15T13:48:51.303Z,28.05
2023-05-15T13:51:20.404Z,27.35
2023-05-15T13:53:49.603Z,28.77
2023-05-15T13:56:18.691Z,28.20
2023-05-15T13:58:47.711Z,25.77
2023-05-15T14:01:16.800Z,26.45
2023-05-15T14:03:46.554Z,24.98
2023-05-15T14:06:15.762Z,24.40
2023-05-15T14:08:44.861Z,26.88
2023-05-15T14:11:13.915Z,27.15
2023-05-15T14:13:43.595Z,25.60
2023-05-15T14:16:12.615Z,24.27
2023-05-15T14:18:42.089Z,25.52
2023-05-15T14:21:11.232Z,24.38
2023-05-15T14:23:40.283Z,23.55
2023-05-15T14:26:09.236Z,24.80
2023-05-15T14:28:38.241Z,24.23
2023-05-15T14:31:07.213Z,24.13
2023-05-15T14:33:36.204Z,24.58
2023-05-15T14:36:05.866Z,23.00
2023-05-15T14:38:35.198Z,24.20
2023-05-15T14:41:04.229Z,23.20
2023-05-15T14:43:33.344Z,22.92
2023-05-15T14:46:02.647Z,24.52
2023-05-15T14:48:31.735Z,22.77
2023-05-15T14:51:01.875Z,23.83
2023-05-15T14:53:30.891Z,24.65
2023-05-15T14:56:00.199Z,23.85
2023-05-15T14:58:29.357Z,24.00
2023-05-15T15:00:58.856Z,23.85
2023-05-15T15:03:29.049Z,23.42
2023-05-15T15:05:59.481Z,24.13
2023-05-15T15:08:28.508Z,23.65
2023-05-15T15:10:57.517Z,23.00
2023-05-15T15:13:28.379Z,24.30
2023-05-15T15:15:57.916Z,25.33
2023-05-15T15:18:27.517Z,22.75
2023-05-15T15:20:56.513Z,24.60
2023-05-15T15:23:25.531Z,23.80
2023-05-15T15:25:54.585Z,24.00
2023-05-15T15:28:23.812Z,26.08
2023-05-15T15:30:52.837Z,24.60
2023-05-15T15:33:21.842Z,26.15
2023-05-15T15:35:50.833Z,24.65
2023-05-15T15:38:19.933Z,24.02
2023-05-15T15:40:48.979Z,23.92
2023-05-15T15:43:18.238Z,24.52
2023-05-15T15:45:47.333Z,24.48
2023-05-15T15:48:16.471Z,24.90
2023-05-15T15:50:45.779Z,24.92
2023-05-15T15:53:15.052Z,25.38
2023-05-15T15:55:45.154Z,24.02
2023-05-15T15:58:16.085Z,25.70
2023-05-15T16:00:45.128Z,25.52
2023-05-15T16:03:14.170Z,25.08
2023-05-15T16:05:43.193Z,28.23
2023-05-15T16:08:12.200Z,25.70
2023-05-15T16:10:41.195Z,25.15
2023-05-15T16:13:11.526Z,25.77
2023-05-15T16:15:40.707Z,24.60
2023-05-15T16:18:09.711Z,25.40
2023-05-15T16:20:38.708Z,24.92
2023-05-15T16:23:10.722Z,24.17
2023-05-15T16:25:39.854Z,25.10
2023-05-15T16:28:09.983Z,24.90
2023-05-15T16:30:48.207Z,26.85
2023-05-15T16:33:19.793Z,26.63
2023-05-15T16:35:49.228Z,26.08
2023-05-15T16:38:19.288Z,24.75
2023-05-15T16:40:48.722Z,24.58
2023-05-15T16:43:18.208Z,25.80
2023-05-15T16:45:47.476Z,25.80
2023-05-15T16:48:16.825Z,24.85
2023-05-15T16:50:45.955Z,25.55
2023-05-15T16:53:16.134Z,26.38
2023-05-15T16:55:45.364Z,24.42
2023-05-15T16:58:14.543Z,27.35
2023-05-15T17:00:43.513Z,25.30
2023-05-15T17:03:14.008Z,26.75
2023-05-15T17:05:43.043Z,27.08
2023-05-15T17:08:12.634Z,27.02
2023-05-15T17:10:42.264Z,26.75
2023-05-15T17:13:11.298Z,25.73
2023-05-15T17:15:40.317Z,25.67
2023-05-15T17:18:09.494Z,26.50
2023-05-15T17:20:38.488Z,27.23
2023-05-15T17:23:07.531Z,26.88
2023-05-15T17:25:36.627Z,29.30
2023-05-15T17:28:05.637Z,25.73
2023-05-15T17:30:34.663Z,26.38
2023-05-15T17:33:03.810Z,26.50
2023-05-15T17:35:33.362Z,25.30
2023-05-15T17:38:02.825Z,26.80
2023-05-15T17:40:31.789Z,26.83
2023-05-15T17:43:00.765Z,26.45
2023-05-15T17:45:29.737Z,26.15
2023-05-15T17:48:04.649Z,26.58
2023-05-15T17:50:36.030Z,25.95
2023-05-15T17:53:07.194Z,27.90
2023-05-15T17:55:36.689Z,24.90
2023-05-15T17:58:05.854Z,26.50
2023-05-15T18:00:34.950Z,26.33
2023-05-15T18:03:04.046Z,28.23
2023-05-15T18:05:33.256Z,27.33
2023-05-15T18:08:04.682Z,26.20
2023-05-15T18:10:33.823Z,26.35
2023-05-15T18:13:02.816Z,31.20
2023-05-15T18:15:36.391Z,29.45
2023-05-15T18:18:05.870Z,28.00
2023-05-15T18:20:34.994Z,27.52
2023-05-15T18:23:03.967Z,27.85
2023-05-15T18:25:37.871Z,26.20
2023-05-15T18:28:07.060Z,27.95
2023-05-15T18:30:36.810Z,27.48
2023-05-15T18:33:06.025Z,28.05
2023-05-15T18:35:35.037Z,28.08
2023-05-15T18:38:04.174Z,27.10
2023-05-15T18:40:33.469Z,28.30
2023-05-15T18:43:02.574Z,27.83
2023-05-15T18:45:31.730Z,26.67
2023-05-15T18:48:00.865Z,27.75
2023-05-15T18:50:29.869Z,29.85
2023-05-15T18:52:58.960Z,28.63
2023-05-15T18:55:31.097Z,28.42
2023-05-15T18:58:00.097Z,27.90
2023-05-15T19:00:37.857Z,26.55
2023-05-15T19:03:10.139Z,26.55
2023-05-15T19:05:39.245Z,26.48
2023-05-15T19:08:08.397Z,27.92
2023-05-15T19:10:37.353Z,27.30
2023-05-15T19:13:06.388Z,28.70
2023-05-15T19:15:35.370Z,28.65
2023-05-15T19:18:04.418Z,28.02
2023-05-15T19:20:33.461Z,27.60
2023-05-15T19:23:02.685Z,26.88
2023-05-15T19:25:32.299Z,26.13
2023-05-15T19:28:01.334Z,25.52
2023-05-15T19:30:30.379Z,27.67
2023-05-15T19:32:59.363Z,28.08
2023-05-15T19:35:28.418Z,29.85
2023-05-15T19:37:57.584Z,30.58
2023-05-15T19:40:26.834Z,29.38
2023-05-15T19:42:56.035Z,29.48
2023-05-15T19:45:25.313Z,27.83
2023-05-15T19:47:54.510Z,28.50
2023-05-15T19:50:23.663Z,29.33
2023-05-15T19:52:52.674Z,27.65
2023-05-15T19:55:21.657Z,29.13
2023-05-15T19:57:50.802Z,30.63
2023-05-15T20:00:20.159Z,29.30
2023-05-15T20:02:50.200Z,28.42
2023-05-15T20:05:19.360Z,29.45
2023-05-15T20:07:48.828Z,30.15
2023-05-15T20:10:19.701Z,30.75
2023-05-15T20:12:49.051Z,28.35
2023-05-15T20:15:18.352Z,30.95
2023-05-15T20:17:47.818Z,30.50
2023-05-15T20:20:17.875Z,32.55
2023-05-15T20:22:47.186Z,30.60
2023-05-15T20:25:19.276Z,30.58
2023-05-15T20:27:48.288Z,30.63
2023-05-15T20:30:17.624Z,30.38
2023-05-15T20:32:47.555Z,30.70
2023-05-15T20:35:17.148Z,29.85
2023-05-15T20:37:46.685Z,30.02
2023-05-15T20:40:17.285Z,29.23
2023-05-15T20:42:46.328Z,30.08
2023-05-15T20:45:15.814Z,30.58
2023-05-15T20:47:45.029Z,27.98
2023-05-15T20:50:14.248Z,28.52
2023-05-15T20:52:43.290Z,30.15
2023-05-15T20:55:21.330Z,28.52
2023-05-15T20:57:51.911Z,30.23
2023-05-15T21:00:21.449Z,30.27
2023-05-15T21:02:50.745Z,29.52
2023-05-15T21:05:20.099Z,29.65
2023-05-15T21:07:49.201Z,30.88
2023-05-15T21:10:18.332Z,28.73
2023-05-15T21:12:47.278Z,28.95
2023-05-15T21:15:16.361Z,28.23
2023-05-15T21:17:45.347Z,28.30
2023-05-15T21:20:14.553Z,28.48
2023-05-15T21:22:43.662Z,30.42
2023-05-15T21:25:13.503Z,29.38
2023-05-15T21:27:43.244Z,29.17
2023-05-15T21:30:12.798Z,29.73
2023-05-15T21:32:41.962Z,28.30
2023-05-15T21:35:11.446Z,28.88
2023-05-15T21:37:40.442Z,29.23
2023-05-15T21:40:10.241Z,30.73
2023-05-15T21:42:39.250Z,30.98
2023-05-15T21:45:08.952Z,29.52
2023-05-15T21:47:37.994Z,28.95
2023-05-15T21:50:08.221Z,29.73
2023-05-15T21:52:37.254Z,33.17
2023-05-15T21:55:06.660Z,31.42
2023-05-15T21:57:35.757Z,31.88
2023-05-15T22:00:05.726Z,31.83
2023-05-15T22:02:34.892Z,32.72
2023-05-15T22:05:05.043Z,31.85
2023-05-15T22:07:33.985Z,28.88
2023-05-15T22:10:04.684Z,30.13
2023-05-15T22:12:36.977Z,28.52
2023-05-15T22:15:06.565Z,29.70
2023-05-15T22:17:37.295Z,31.60
2023-05-15T22:20:12.613Z,31.33
2023-05-15T22:22:44.222Z,31.48
2023-05-15T22:25:13.363Z,31.50
2023-05-15T22:27:42.909Z,31.63
2023-05-15T22:30:12.258Z,29.52
2023-05-15T22:32:42.474Z,30.80
2023-05-15T22:35:12.887Z,29.13
2023-05-15T22:37:43.288Z,30.05
2023-05-15T22:40:13.250Z,30.90
2023-05-15T22:42:42.422Z,34.47
2023-05-15T22:45:11.920Z,36.65
2023-05-15T22:47:41.240Z,39.97
2023-05-15T22:50:10.868Z,36.90
2023-05-15T22:52:40.198Z,40.47
2023-05-15T22:55:23.748Z,42.17
2023-05-15T22:57:52.688Z,35.83
2023-05-15T23:00:21.998Z,35.65
2023-05-15T23:02:51.120Z,32.78
2023-05-15T23:05:20.336Z,31.10
2023-05-15T23:08:29.107Z,31.33
2023-05-15T23:10:58.070Z,30.88
2023-05-15T23:13:28.149Z,30.35
2023-05-15T23:15:57.244Z,35.42
2023-05-15T23:18:26.852Z,34.95
2023-05-15T23:20:55.840Z,32.60
2023-05-15T23:23:24.843Z,31.65
2023-05-15T23:25:53.795Z,29.40
2023-05-15T23:28:22.937Z,28.88
2023-05-15T23:30:55.007Z,26.67
2023-05-15T23:33:24.953Z,27.50
2023-05-15T23:35:54.072Z,28.45
2023-05-15T23:38:24.665Z,31.60
2023-05-15T23:40:54.448Z,30.95
2023-05-15T23:43:23.550Z,29.90
2023-05-15T23:45:52.524Z,28.80
2023-05-15T23:48:21.567Z,29.77
2023-05-15T23:50:50.648Z,31.27
2023-05-15T23:53:19.586Z,29.48
2023-05-15T23:55:48.938Z,26.63
2023-05-15T23:58:18.033Z,27.55
